Nagano, Japan
Current Conditions -  °F | °C
As of 4:29 PM on Wednesday 22 Oct 2014 (Local Time) from RJAF Reporting Station
Light Rain Light Rain  
Wind Chill: 52°   Ceiling: 2500
Heat Index: 52°   Visibility: 6mi
Dew Point: 48°   Wind: 8mph
Humidity: 88%   Direction: 330°NNW
Pressure: 29.91"   Gusts: NA
Location:  36.65°N, 138.18°E
Report Text: RJAF 220729Z 33007KT 9000 -RA VCFG FEW006 SCT011 BKN025 11/09 Q1013 RMK 2ST006 4ST011 7SC025 A2994
Loading
Personal Weather Stations






























Interactive Weather Map
Tropical Storm Tracking
New forecast layout! Learn more

10-Day Weather Forecast

Advertisements
Track Severe Weather on mobile